Time;durP1;ratioP1;P1;durP2;ratioP2;P2;SDS_P1;SDS_P2;PMS_P1;PMS_P2;Temp;Humidity;BMP_temperature;BMP_pressure;BME280_temperature;BME280_humidity;BME280_pressure;Samples;Min_cycle;Max_cycle;Signal;HPM_P1;HPM_P2
2021/06/08 00:00:04;;;;;;;12.47;8.25;;;;;;;13.35;66.46;101729.39;1620348;88;21774;-90
2021/06/08 00:02:31;;;;;;;13.30;8.10;;;;;;;13.33;66.49;101727.13;1620591;88;21509;-92
2021/06/08 00:04:58;;;;;;;10.48;8.13;;;;;;;13.30;66.59;101729.24;1620525;87;21059;-92
2021/06/08 00:07:25;;;;;;;15.10;8.28;;;;;;;13.28;66.67;101724.30;1620634;88;21076;-92
2021/06/08 00:09:53;;;;;;;17.57;7.78;;;;;;;13.27;66.77;101715.92;1619763;87;21039;-92
2021/06/08 00:12:20;;;;;;;14.18;8.23;;;;;;;13.27;66.79;101724.25;1676552;85;22647;-92
2021/06/08 00:14:47;;;;;;;11.28;7.85;;;;;;;13.26;66.87;101717.19;1641246;87;21047;-92
2021/06/08 00:17:14;;;;;;;16.25;7.85;;;;;;;13.26;66.87;101717.19;1676461;84;21078;-93
2021/06/08 00:19:40;;;;;;;11.83;7.87;;;;;;;13.25;66.92;101728.60;1641445;86;21196;-93
2021/06/08 00:22:07;;;;;;;11.63;8.03;;;;;;;13.24;67.02;101718.45;1677007;84;21644;-92
2021/06/08 00:24:40;;;;;;;13.43;8.45;;;;;;;13.22;67.01;101718.84;1641354;87;22455;-94
2021/06/08 00:27:08;;;;;;;10.20;7.58;;;;;;;13.23;67.02;101724.58;1695981;83;21004;-92
2021/06/08 00:29:35;;;;;;;13.20;7.67;;;;;;;13.21;67.12;101716.64;1676703;85;21616;-92
2021/06/08 00:32:05;;;;;;;9.93;7.70;;;;;;;13.22;67.08;101722.81;1676883;85;21127;-93
2021/06/08 00:34:32;;;;;;;13.05;8.00;;;;;;;13.23;67.05;101723.26;1641613;87;21078;-89
2021/06/08 00:36:58;;;;;;;12.68;9.08;;;;;;;13.20;67.08;101714.83;1676534;85;21941;-93
2021/06/08 00:39:25;;;;;;;16.15;8.33;;;;;;;13.20;67.05;101724.52;1676620;85;21055;-92
2021/06/08 00:41:56;;;;;;;12.63;8.30;;;;;;;13.18;67.10;101719.17;1640906;87;21103;-93
2021/06/08 00:44:23;;;;;;;13.78;8.63;;;;;;;13.17;67.10;101723.09;1676626;84;21050;-93
2021/06/08 00:46:52;;;;;;;14.20;8.08;;;;;;;13.16;67.05;101731.89;1676495;85;21067;-92
2021/06/08 00:49:18;;;;;;;12.68;7.75;;;;;;;13.14;67.07;101727.88;1641283;87;21812;-92
2021/06/08 00:51:45;;;;;;;13.98;8.35;;;;;;;13.14;67.12;101728.30;1676340;85;21043;-93
2021/06/08 00:54:12;;;;;;;13.72;9.58;;;;;;;13.13;67.13;101723.41;1676517;85;21089;-93
2021/06/08 00:56:41;;;;;;;9.43;7.97;;;;;;;13.10;67.14;101731.28;1617231;87;21154;-94
2021/06/08 00:59:10;;;;;;;11.48;8.00;;;;;;;13.07;67.19;101727.20;1676683;85;21083;-94
2021/06/08 01:01:36;;;;;;;15.03;8.53;;;;;;;13.06;67.24;101724.08;1641223;87;22641;-93
2021/06/08 01:04:05;;;;;;;12.40;8.38;;;;;;;13.04;67.25;101721.81;1647800;85;21078;-93
2021/06/08 01:06:36;;;;;;;11.93;8.30;;;;;;;13.05;67.25;101725.37;1676882;85;21075;-93
2021/06/08 01:09:07;;;;;;;13.00;8.23;;;;;;;13.05;67.24;101718.77;1641219;87;21051;-93
2021/06/08 01:11:34;;;;;;;11.43;8.23;;;;;;;13.01;67.19;101716.02;1673103;82;21042;-92
2021/06/08 01:14:01;;;;;;;13.58;8.33;;;;;;;13.00;67.21;101722.14;1636851;87;21784;-89
2021/06/08 01:16:29;;;;;;;16.90;9.13;;;;;;;12.97;67.12;101719.43;1671239;85;21040;-89
2021/06/08 01:18:56;;;;;;;11.68;8.18;;;;;;;12.95;67.11;101714.52;1671614;85;21113;-90
2021/06/08 01:21:23;;;;;;;11.78;8.55;;;;;;;12.93;67.14;101712.66;1671783;85;21055;-90
2021/06/08 01:23:50;;;;;;;11.22;8.25;;;;;;;12.89;67.17;101708.14;1671985;84;21086;-91
2021/06/08 01:26:17;;;;;;;13.68;8.43;;;;;;;12.85;67.19;101705.83;1636492;87;21930;-91
2021/06/08 01:28:45;;;;;;;13.32;9.90;;;;;;;12.82;67.19;101708.39;1671567;85;21545;-92
2021/06/08 01:31:15;;;;;;;14.55;8.75;;;;;;;12.78;67.22;101710.04;1671660;85;21581;-92
2021/06/08 01:33:43;;;;;;;14.20;8.48;;;;;;;12.76;67.26;101702.49;1636195;87;21075;-92
2021/06/08 01:36:17;;;;;;;13.03;8.00;;;;;;;12.75;67.29;101705.97;1671760;85;21093;-93
2021/06/08 01:38:46;;;;;;;12.63;8.53;;;;;;;12.75;67.33;101702.44;1671660;85;21770;-90
2021/06/08 01:41:17;;;;;;;20.60;8.10;;;;;;;12.73;67.34;101703.70;1671380;85;21086;-92
2021/06/08 01:43:42;;;;;;;13.93;8.83;;;;;;;12.71;67.35;101706.73;1671223;84;21035;-91
2021/06/08 01:46:12;;;;;;;14.50;8.38;;;;;;;12.69;67.32;101696.54;1671484;85;21659;-90
2021/06/08 01:48:40;;;;;;;10.72;8.10;;;;;;;12.69;67.31;101696.54;1613227;87;37278;-93
2021/06/08 01:51:35;;;;;;;10.50;7.90;;;;;;;12.69;67.29;101696.54;1671622;85;21892;-92
2021/06/08 01:54:35;;;;;;;14.98;7.70;;;;;;;12.70;67.27;101693.46;1636416;86;21135;-93
2021/06/08 01:57:30;;;;;;;13.38;8.75;;;;;;;12.68;67.24;101692.09;1672176;85;21032;-94
2021/06/08 02:00:07;;;;;;;14.45;7.85;;;;;;;12.68;67.20;101691.20;1671659;85;21777;-93
2021/06/08 02:03:11;;;;;;;9.40;7.30;;;;;;;12.66;67.19;101688.51;1671789;85;21103;-91
2021/06/08 02:06:12;;;;;;;11.38;8.03;;;;;;;12.64;67.19;101691.09;1637028;87;21842;-94
2021/06/08 02:08:51;;;;;;;11.50;7.58;;;;;;;12.66;67.17;101688.94;1671893;85;21652;-94
2021/06/08 02:12:02;;;;;;;11.97;7.30;;;;;;;12.67;67.09;101694.67;1675809;83;21110;-91
2021/06/08 02:14:58;;;;;;;14.55;7.60;;;;;;;12.67;67.04;101695.59;1648791;86;21078;-91
2021/06/08 02:17:30;;;;;;;11.50;7.45;;;;;;;12.66;66.99;101694.22;1621639;88;21418;-93
2021/06/08 02:20:02;;;;;;;10.82;7.75;;;;;;;12.64;67.01;101687.13;1620493;87;21839;-93
2021/06/08 02:22:28;;;;;;;16.32;7.92;;;;;;;12.63;66.96;101691.95;1620414;87;21135;-93
2021/06/08 02:25:06;;;;;;;14.75;7.85;;;;;;;12.63;66.97;101688.40;1602471;88;21104;-93
2021/06/08 02:27:30;;;;;;;10.10;7.25;;;;;;;12.62;66.97;101690.16;1637619;87;21130;-93
2021/06/08 02:29:57;;;;;;;15.70;7.83;;;;;;;12.64;66.93;101694.17;1648758;87;21019;-93
2021/06/08 02:32:24;;;;;;;11.45;8.00;;;;;;;12.68;66.91;101693.84;1646522;86;21786;-93
2021/06/08 02:34:51;;;;;;;11.65;7.78;;;;;;;12.69;66.87;101689.94;1620747;88;21087;-93
2021/06/08 02:37:18;;;;;;;13.05;8.35;;;;;;;12.73;66.84;101689.61;1602664;88;21035;-94
2021/06/08 02:39:45;;;;;;;9.58;7.75;;;;;;;12.77;66.86;101691.06;1620773;88;21141;-94
2021/06/08 02:42:18;;;;;;;11.90;7.58;;;;;;;12.82;66.82;101691.22;1621026;88;21035;-94
2021/06/08 02:44:46;;;;;;;9.27;7.37;;;;;;;12.86;66.76;101701.02;1624623;88;21838;-93
2021/06/08 02:47:14;;;;;;;13.65;6.95;;;;;;;12.92;66.69;101701.20;1621304;88;21094;-94
2021/06/08 02:49:40;;;;;;;10.43;7.25;;;;;;;12.98;66.60;101704.46;1624100;88;21071;-95
2021/06/08 02:52:07;;;;;;;12.90;6.67;;;;;;;13.02;66.52;101706.34;1620706;88;21149;-94
2021/06/08 02:54:34;;;;;;;10.98;7.25;;;;;;;13.08;66.47;101708.27;1620960;88;21043;-93
2021/06/08 02:57:04;;;;;;;10.38;7.47;;;;;;;13.13;66.37;101708.88;1582112;88;21375;-93
2021/06/08 02:59:32;;;;;;;10.28;7.15;;;;;;;13.20;66.29;101712.62;1602728;88;21050;-94
2021/06/08 03:01:58;;;;;;;9.50;6.58;;;;;;;13.29;66.18;101708.92;1602819;88;21656;-92
2021/06/08 03:04:36;;;;;;;9.93;6.90;;;;;;;13.40;66.08;101711.89;1620833;88;21180;-93
2021/06/08 03:07:03;;;;;;;12.60;6.60;;;;;;;13.47;65.96;101715.19;1617866;87;21605;-93
2021/06/08 03:09:56;;;;;;;11.50;6.45;;;;;;;13.59;65.82;101715.98;1620926;88;21762;-92
2021/06/08 03:12:48;;;;;;;12.25;7.40;;;;;;;13.69;65.68;101714.48;1616501;87;21093;-93
2021/06/08 03:15:17;;;;;;;11.93;7.33;;;;;;;13.82;65.50;101716.61;1676584;85;25319;-95
2021/06/08 03:17:44;;;;;;;8.28;6.67;;;;;;;13.96;65.26;101721.86;1642087;87;21103;-95
2021/06/08 03:20:24;;;;;;;11.00;7.12;;;;;;;14.12;65.13;101723.58;1677057;84;21063;-95
2021/06/08 03:22:58;;;;;;;8.90;6.50;;;;;;;14.28;64.89;101724.84;1648422;86;21600;-94
2021/06/08 03:25:31;;;;;;;10.95;6.80;;;;;;;14.44;64.58;101729.68;1707317;83;22094;-93
2021/06/08 03:27:58;;;;;;;9.53;6.25;;;;;;;14.63;64.51;101728.41;1625690;87;21086;-91
2021/06/08 03:30:40;;;;;;;9.15;6.15;;;;;;;15.00;64.24;101734.98;1683704;85;21022;-93
2021/06/08 03:33:11;;;;;;;10.40;6.37;;;;;;;15.15;63.57;101729.61;1619773;88;22121;-92
2021/06/08 03:36:26;;;;;;;7.55;6.33;;;;;;;15.28;63.15;101726.79;1633165;86;22788;-94
2021/06/08 03:38:56;;;;;;;10.80;6.65;;;;;;;15.42;62.91;101731.05;1651892;86;21178;-93
2021/06/08 03:41:22;;;;;;;9.65;6.92;;;;;;;15.82;62.89;101728.33;1669568;85;21129;-93
2021/06/08 03:43:50;;;;;;;8.30;6.25;;;;;;;16.21;62.27;101728.16;1646911;85;21089;-90
2021/06/08 03:50:20;;;;;;;11.70;6.42;;;;;;;17.00;62.03;101731.65;1621055;88;21075;-94
2021/06/08 03:52:50;;;;;;;12.23;5.60;;;;;;;17.23;60.16;101728.00;1654541;86;21126;-79
2021/06/08 03:55:15;;;;;;;9.25;5.42;;;;;;;17.38;59.95;101732.63;1653460;86;21154;-83
2021/06/08 03:57:46;;;;;;;10.25;6.00;;;;;;;18.46;61.47;101731.98;1619628;88;21178;-82
2021/06/08 04:00:15;;;;;;;11.05;6.67;;;;;;;20.90;60.85;101731.03;1653194;86;21043;-84
2021/06/08 04:02:45;;;;;;;8.30;5.60;;;;;;;23.26;58.50;101729.48;1587295;90;22443;-90
2021/06/08 04:05:26;;;;;;;10.70;6.35;;;;;;;25.26;55.63;101720.90;1626156;87;21129;-82
2021/06/08 04:07:46;;;;;;;10.63;5.55;;;;;;;26.87;52.79;101723.41;1619552;87;21599;-81
2021/06/08 04:10:19;;;;;;;6.45;4.97;;;;;;;28.27;50.73;101725.50;1631602;85;21672;-82
2021/06/08 04:12:47;;;;;;;9.53;5.08;;;;;;;29.57;48.55;101720.39;1645331;86;21055;-81
2021/06/08 04:15:14;;;;;;;7.05;4.50;;;;;;;30.78;46.61;101721.75;1620658;87;21986;-81
2021/06/08 04:17:41;;;;;;;8.58;5.50;;;;;;;31.64;44.50;101723.77;1647348;85;21078;-81
2021/06/08 04:20:09;;;;;;;12.25;4.40;;;;;;;32.39;43.11;101729.59;1619623;87;21150;-81
2021/06/08 04:22:39;;;;;;;6.08;5.03;;;;;;;33.05;41.38;101729.34;1619671;88;21129;-88
2021/06/08 04:25:07;;;;;;;7.55;4.55;;;;;;;33.58;39.74;101729.63;1620030;88;21165;-89
2021/06/08 04:27:43;;;;;;;6.80;5.30;;;;;;;33.89;38.33;101729.26;1620061;87;21852;-89
2021/06/08 04:30:14;;;;;;;6.67;5.05;;;;;;;34.27;37.18;101732.52;1617399;87;21549;-85
2021/06/08 04:32:41;;;;;;;6.67;4.55;;;;;;;34.55;36.54;101726.73;1647433;85;21146;-84
2021/06/08 04:35:20;;;;;;;7.40;4.35;;;;;;;35.31;35.49;101722.09;1620141;88;21110;-86
2021/06/08 04:37:47;;;;;;;6.85;4.75;;;;;;;35.81;34.19;101726.15;1648025;87;21098;-92
2021/06/08 04:40:15;;;;;;;8.53;4.33;;;;;;;36.16;33.10;101721.55;1620495;88;21763;-91
2021/06/08 04:42:48;;;;;;;8.83;5.97;;;;;;;36.59;32.57;101719.48;1619967;87;21110;-76
2021/06/08 04:45:15;;;;;;;5.78;4.42;;;;;;;37.08;31.63;101721.14;1619145;88;21150;-77
2021/06/08 04:47:42;;;;;;;7.12;4.17;;;;;;;37.62;31.29;101720.02;1619281;87;21087;-80
2021/06/08 04:50:16;;;;;;;6.95;3.80;;;;;;;37.97;30.34;101722.84;1628768;87;22001;-80
2021/06/08 04:52:44;;;;;;;13.55;4.58;;;;;;;38.16;29.64;101716.87;1618821;87;21838;-79
2021/06/08 04:55:11;;;;;;;9.93;4.40;;;;;;;38.29;29.15;101720.89;1619241;88;21763;-79
2021/06/08 04:57:38;;;;;;;5.60;4.15;;;;;;;38.83;28.82;101721.70;1619387;87;21756;-81
2021/06/08 05:00:08;;;;;;;8.35;4.55;;;;;;;39.55;28.23;101717.80;1619522;88;21145;-80
2021/06/08 05:02:52;;;;;;;9.23;4.20;;;;;;;40.15;27.55;101725.66;1647499;85;21106;-80
2021/06/08 05:05:29;;;;;;;8.45;4.00;;;;;;;40.56;26.60;101722.10;1619664;87;21838;-81
2021/06/08 05:08:13;;;;;;;13.30;4.08;;;;;;;40.76;26.27;101725.02;1618840;88;21138;-81
2021/06/08 05:10:45;;;;;;;10.93;3.83;;;;;;;41.28;25.61;101727.80;1618461;87;21521;-80
2021/06/08 05:13:11;;;;;;;8.33;3.27;;;;;;;41.33;24.90;101729.64;1613819;87;21051;-80
2021/06/08 05:15:38;;;;;;;9.23;3.40;;;;;;;41.39;24.20;101726.34;1675665;85;22233;-80
2021/06/08 05:18:07;;;;;;;5.62;2.52;;;;;;;41.18;23.54;101726.34;1639992;87;21226;-81
2021/06/08 05:20:37;;;;;;;7.28;2.60;;;;;;;41.06;23.01;101730.23;1675601;84;22020;-81
2021/06/08 05:23:04;;;;;;;4.65;2.98;;;;;;;40.96;23.06;101725.53;1675479;85;21165;-81
2021/06/08 05:25:31;;;;;;;3.83;2.50;;;;;;;40.78;22.80;101723.89;1640475;87;21332;-80
2021/06/08 05:27:59;;;;;;;4.20;2.72;;;;;;;40.73;22.54;101733.07;1675568;84;21608;-81
2021/06/08 05:30:25;;;;;;;2.95;1.87;;;;;;;40.66;22.23;101727.72;1675278;85;21757;-81
2021/06/08 05:32:52;;;;;;;6.92;2.02;;;;;;;40.52;20.72;101734.94;1640414;86;21594;-81
2021/06/08 05:35:28;;;;;;;7.87;2.40;;;;;;;39.87;21.33;101727.11;1675570;84;21138;-81
2021/06/08 05:38:05;;;;;;;4.65;2.00;;;;;;;39.46;21.22;101723.56;1675640;85;21083;-82
2021/06/08 05:40:32;;;;;;;3.80;2.00;;;;;;;38.78;20.62;101723.97;1675350;85;21684;-81
2021/06/08 05:42:59;;;;;;;5.20;2.27;;;;;;;36.32;20.52;101721.39;1640584;87;21737;-81
2021/06/08 05:45:27;;;;;;;7.22;2.08;;;;;;;33.72;21.67;101722.53;1675627;85;21055;-82
2021/06/08 05:47:54;;;;;;;4.15;3.00;;;;;;;31.35;23.09;101724.17;1615640;87;21095;-82
2021/06/08 05:50:24;;;;;;;10.95;8.35;;;;;;;30.00;24.43;101724.13;1648640;85;22199;-82
2021/06/08 05:52:53;;;;;;;11.15;6.12;;;;;;;28.68;25.39;101708.33;1670807;85;21094;-81
2021/06/08 05:55:18;;;;;;;3.72;2.52;;;;;;;27.64;26.53;101721.20;1675641;85;21796;-81
2021/06/08 05:57:48;;;;;;;8.35;3.25;;;;;;;26.69;27.54;101730.19;1640422;86;21067;-81
2021/06/08 06:00:16;;;;;;;6.75;2.77;;;;;;;25.68;28.58;101730.81;1675764;84;21055;-82
2021/06/08 06:02:43;;;;;;;6.55;3.35;;;;;;;24.92;29.59;101730.97;1640599;87;21596;-82
2021/06/08 06:05:10;;;;;;;6.08;3.83;;;;;;;24.21;30.62;101724.14;1675672;84;21109;-82
2021/06/08 06:07:39;;;;;;;5.58;2.98;;;;;;;23.88;31.67;101720.16;1671184;84;21834;-82
2021/06/08 06:10:10;;;;;;;5.25;2.72;;;;;;;23.62;32.44;101728.10;1640475;87;21098;-82
2021/06/08 06:12:41;;;;;;;6.92;2.70;;;;;;;23.42;33.16;101724.78;1673264;82;21062;-82
2021/06/08 06:15:09;;;;;;;3.52;2.50;;;;;;;23.31;33.65;101727.60;1635863;87;21134;-82
2021/06/08 06:17:38;;;;;;;8.63;4.10;;;;;;;23.04;33.91;101733.74;1670835;85;21592;-82
2021/06/08 06:20:13;;;;;;;6.55;2.75;;;;;;;22.81;34.52;101729.94;1635745;87;21819;-82
2021/06/08 06:22:41;;;;;;;6.40;3.50;;;;;;;22.64;35.13;101732.78;1670984;85;21039;-82
2021/06/08 06:25:10;;;;;;;8.03;3.83;;;;;;;22.41;35.86;101737.03;1670919;85;21102;-81
2021/06/08 06:27:38;;;;;;;5.00;3.65;;;;;;;22.35;36.10;101731.69;1635774;87;21095;-81
2021/06/08 06:30:13;;;;;;;4.58;3.77;;;;;;;22.35;36.10;101731.69;1670778;85;21106;-81
2021/06/08 06:32:43;;;;;;;9.60;2.95;;;;;;;22.29;36.22;101738.45;1626817;87;21681;-82
2021/06/08 06:35:11;;;;;;;4.25;2.80;;;;;;;22.17;36.58;101735.39;1653544;85;21656;-81
2021/06/08 06:37:40;;;;;;;5.33;3.35;;;;;;;22.08;36.87;101732.77;1635755;87;21075;-82
2021/06/08 06:40:15;;;;;;;9.88;4.65;;;;;;;22.17;37.29;101731.80;1670738;85;21113;-81
2021/06/08 06:42:44;;;;;;;4.05;2.90;;;;;;;22.21;37.28;101733.12;1635667;87;21153;-81
2021/06/08 06:45:22;;;;;;;9.93;3.00;;;;;;;22.19;37.30;101743.43;1670514;85;22405;-81
2021/06/08 06:47:49;;;;;;;9.03;2.92;;;;;;;22.07;37.47;101733.23;1635599;87;21086;-81
2021/06/08 06:50:15;;;;;;;4.65;3.58;;;;;;;22.06;37.53;101733.23;1670633;85;21122;-81
2021/06/08 06:52:55;;;;;;;4.62;2.85;;;;;;;22.07;37.70;101730.98;1635532;87;21048;-81
2021/06/08 06:55:15;;;;;;;4.55;3.27;;;;;;;22.10;37.72;101740.35;1672226;83;21608;-81
2021/06/08 06:57:42;;;;;;;7.90;3.30;;;;;;;22.17;37.90;101742.09;1635701;87;22398;-81
2021/06/08 07:00:11;;;;;;;4.90;2.58;;;;;;;22.26;38.12;101743.40;1670565;85;21078;-81
2021/06/08 07:02:38;;;;;;;4.62;2.77;;;;;;;22.31;38.13;101744.23;1635599;87;21094;-81
2021/06/08 07:05:06;;;;;;;6.58;3.25;;;;;;;22.33;38.13;101742.88;1631070;85;21125;-81
2021/06/08 07:07:33;;;;;;;7.55;3.12;;;;;;;22.30;38.28;101737.56;1635703;87;21601;-81
2021/06/08 07:09:59;;;;;;;5.58;2.55;;;;;;;22.31;38.30;101746.03;1670566;85;21738;-81
2021/06/08 07:12:26;;;;;;;11.15;3.50;;;;;;;22.36;38.27;101746.89;1636466;85;21103;-81
2021/06/08 07:14:53;;;;;;;8.58;5.12;;;;;;;22.36;38.26;101744.67;1675383;85;21388;-81
2021/06/08 07:17:21;;;;;;;4.92;3.15;;;;;;;22.38;38.26;101751.80;1640555;87;21205;-81
2021/06/08 07:19:48;;;;;;;9.15;3.40;;;;;;;22.40;38.19;101748.64;1675720;85;21683;-81
2021/06/08 07:22:15;;;;;;;5.67;4.47;;;;;;;22.37;38.11;101747.31;1640584;87;21695;-81
2021/06/08 07:24:44;;;;;;;7.30;3.83;;;;;;;22.29;38.37;101742.02;1675612;84;21076;-81
2021/06/08 07:27:14;;;;;;;8.95;4.10;;;;;;;22.35;38.43;101748.24;1675567;85;21129;-81
2021/06/08 07:29:41;;;;;;;4.75;2.52;;;;;;;22.40;38.51;101743.28;1675646;85;21048;-81
2021/06/08 07:32:27;;;;;;;8.88;3.50;;;;;;;22.48;38.57;101747.23;1640592;87;21079;-81
2021/06/08 07:35:05;;;;;;;8.28;3.25;;;;;;;22.48;38.42;101745.89;1675699;84;21715;-81
2021/06/08 07:37:33;;;;;;;5.70;2.80;;;;;;;22.47;38.59;101752.18;1651166;85;21118;-80
2021/06/08 07:40:11;;;;;;;5.58;3.40;;;;;;;22.43;38.67;101752.66;1675789;84;21078;-81
2021/06/08 07:42:53;;;;;;;7.53;2.90;;;;;;;22.41;38.60;101750.44;1640577;86;21075;-82
2021/06/08 07:45:31;;;;;;;3.30;2.60;;;;;;;22.37;38.61;101761.19;1675779;85;21110;-81
2021/06/08 07:47:59;;;;;;;8.20;3.00;;;;;;;22.36;38.55;101758.97;1640789;86;21764;-81
2021/06/08 07:50:33;;;;;;;6.17;2.83;;;;;;;22.32;38.82;101756.76;1675592;85;21553;-81
2021/06/08 07:53:01;;;;;;;9.28;3.65;;;;;;;22.39;38.90;101756.70;1638585;86;21087;-81
2021/06/08 07:55:29;;;;;;;7.37;2.92;;;;;;;22.45;38.94;101762.92;1675804;85;21521;-81
2021/06/08 07:57:56;;;;;;;8.28;2.92;;;;;;;22.49;38.97;101764.67;1675915;85;21651;-81
2021/06/08 08:00:23;;;;;;;24.35;19.00;;;;;;;22.51;39.11;101768.22;1640625;86;22120;-81
2021/06/08 08:02:54;;;;;;;5.40;3.72;;;;;;;22.55;38.89;101765.06;1675908;84;21138;-81
2021/06/08 08:05:22;;;;;;;7.08;3.47;;;;;;;22.57;38.94;101765.94;1640462;87;21091;-81
2021/06/08 08:07:49;;;;;;;7.70;2.90;;;;;;;22.50;38.98;101766.46;1675693;84;21198;-81
2021/06/08 08:10:16;;;;;;;7.47;3.20;;;;;;;22.49;38.98;101765.13;1675572;85;21103;-81
2021/06/08 08:12:43;;;;;;;7.95;3.85;;;;;;;22.52;38.91;101775.81;1627843;84;21718;-81
2021/06/08 08:15:11;;;;;;;7.80;4.92;;;;;;;22.53;38.89;101764.66;1687622;84;21113;-81
2021/06/08 08:17:39;;;;;;;7.65;3.15;;;;;;;22.62;39.06;101768.60;1687159;84;21142;-81
2021/06/08 08:20:08;;;;;;;8.18;3.83;;;;;;;22.64;38.71;101767.67;1687543;84;21137;-81
2021/06/08 08:22:35;;;;;;;4.25;2.65;;;;;;;22.68;38.65;101776.13;1687912;85;21082;-81
2021/06/08 08:25:01;;;;;;;14.38;4.65;;;;;;;22.71;38.43;101765.80;1687460;84;21757;-81
2021/06/08 08:27:28;;;;;;;11.55;6.78;;;;;;;22.76;38.34;101772.03;1651647;86;21094;-81
2021/06/08 08:29:55;;;;;;;6.87;3.05;;;;;;;22.75;38.23;101759.95;1687634;84;21074;-82
2021/06/08 08:32:22;;;;;;;5.10;2.70;;;;;;;22.83;38.15;101771.53;1687449;84;21054;-81
2021/06/08 08:34:49;;;;;;;5.12;2.72;;;;;;;22.82;38.02;101762.56;1651574;86;21075;-81
2021/06/08 08:37:16;;;;;;;5.70;3.33;;;;;;;22.81;38.15;101770.20;1687474;84;21658;-81
2021/06/08 08:39:43;;;;;;;5.97;3.50;;;;;;;22.85;38.11;101771.06;1651289;86;21547;-81
2021/06/08 08:42:10;;;;;;;9.10;3.70;;;;;;;22.86;38.06;101777.77;1687455;84;22270;-81
2021/06/08 08:44:36;;;;;;;3.90;2.83;;;;;;;22.89;37.93;101772.34;1687412;85;21117;-81
2021/06/08 08:47:03;;;;;;;7.30;2.55;;;;;;;22.85;37.87;101766.58;1687530;84;21050;-81
2021/06/08 08:49:30;;;;;;;7.42;2.85;;;;;;;22.87;38.03;101770.13;1651743;86;21675;-81
2021/06/08 08:51:57;;;;;;;10.00;3.00;;;;;;;22.95;37.70;101776.77;1687582;84;21093;-81
2021/06/08 08:54:24;;;;;;;4.03;3.15;;;;;;;22.94;37.75;101779.45;1651516;86;21086;-81
2021/06/08 08:56:50;;;;;;;7.40;3.33;;;;;;;22.93;37.63;101770.98;1687553;84;21099;-81
2021/06/08 08:59:17;;;;;;;6.45;3.85;;;;;;;22.93;37.65;101770.52;1651891;85;21129;-81
2021/06/08 09:01:47;;;;;;;6.50;2.75;;;;;;;22.96;37.87;101771.84;1687491;84;21828;-81
2021/06/08 09:04:13;;;;;;;6.65;3.30;;;;;;;23.00;37.89;101769.56;1651624;86;21074;-81
2021/06/08 09:06:40;;;;;;;4.25;3.47;;;;;;;23.02;37.84;101773.12;1687583;84;21750;-81
2021/06/08 09:09:09;;;;;;;5.55;3.17;;;;;;;23.01;38.01;101771.36;1651442;86;21415;-81
2021/06/08 09:11:40;;;;;;;9.03;3.33;;;;;;;22.97;37.67;101763.33;1687438;83;21097;-81
2021/06/08 09:14:07;;;;;;;5.15;3.35;;;;;;;22.91;37.82;101756.23;1644260;85;22430;-81
2021/06/08 09:16:34;;;;;;;7.10;2.95;;;;;;;22.94;37.86;101756.64;1675764;84;21082;-81
2021/06/08 09:19:04;;;;;;;9.90;3.52;;;;;;;22.97;38.10;101756.16;1675317;85;21117;-81
2021/06/08 09:21:34;;;;;;;8.50;3.45;;;;;;;22.98;38.05;101755.27;1675135;84;21075;-81
2021/06/08 09:24:24;;;;;;;4.87;3.77;;;;;;;23.01;38.14;101757.93;1640178;86;21675;-81
2021/06/08 09:26:57;;;;;;;7.53;3.42;;;;;;;23.03;38.06;101749.83;1675643;85;21742;-81
2021/06/08 09:29:32;;;;;;;6.22;3.02;;;;;;;23.05;37.93;101760.16;1640336;86;21130;-81
2021/06/08 09:32:26;;;;;;;5.97;3.10;;;;;;;23.01;37.72;101749.88;1674690;85;21173;-81
2021/06/08 09:34:59;;;;;;;6.85;3.30;;;;;;;23.04;37.71;101751.66;1640397;86;21091;-81
2021/06/08 09:37:42;;;;;;;13.83;3.65;;;;;;;23.02;37.73;101751.63;1675530;84;21130;-81
2021/06/08 09:40:27;;;;;;;7.10;3.27;;;;;;;23.00;37.95;101748.08;1640411;86;21757;-81
2021/06/08 09:43:08;;;;;;;10.78;3.50;;;;;;;23.02;38.30;101755.66;1675399;84;21122;-81
2021/06/08 09:45:49;;;;;;;5.03;3.33;;;;;;;23.05;38.25;101754.80;1675626;85;21043;-81
2021/06/08 09:48:16;;;;;;;4.65;3.17;;;;;;;23.05;38.24;101753.45;1640401;87;21122;-81
2021/06/08 09:50:49;;;;;;;6.03;3.10;;;;;;;23.05;38.11;101754.33;1675385;84;21115;-81
2021/06/08 09:53:29;;;;;;;4.75;3.17;;;;;;;23.07;37.96;101758.34;1640152;86;21847;-81
2021/06/08 09:56:06;;;;;;;8.90;3.60;;;;;;;23.06;38.12;101746.70;1675837;84;21130;-81
2021/06/08 09:58:48;;;;;;;7.95;3.47;;;;;;;23.20;38.16;101756.39;1675432;84;21600;-81
2021/06/08 10:01:21;;;;;;;5.85;2.85;;;;;;;23.23;38.30;101758.59;1640504;86;21650;-81
2021/06/08 10:03:57;;;;;;;8.93;3.90;;;;;;;23.28;37.92;101754.06;1675951;85;21143;-81
2021/06/08 10:06:27;;;;;;;15.65;4.10;;;;;;;23.30;37.84;101755.39;1675610;85;21749;-80
2021/06/08 10:09:04;;;;;;;10.25;3.10;;;;;;;23.30;37.77;101758.08;1640788;87;21796;-81
2021/06/08 10:11:32;;;;;;;7.47;3.70;;;;;;;23.31;37.62;101748.22;1675793;84;21623;-80
2021/06/08 10:14:19;;;;;;;6.42;3.80;;;;;;;23.29;37.74;101749.56;1640205;85;21608;-80
2021/06/08 10:16:59;;;;;;;7.55;3.47;;;;;;;23.28;37.80;101750.50;1675505;85;21106;-81
2021/06/08 10:19:26;;;;;;;14.70;3.47;;;;;;;23.29;38.06;101750.48;1638340;86;22439;-81
2021/06/08 10:21:53;;;;;;;9.65;3.87;;;;;;;23.35;38.50;101741.89;1675389;85;21097;-81
2021/06/08 10:24:23;;;;;;;9.03;4.30;;;;;;;23.47;38.49;101745.31;1640588;87;21032;-81
2021/06/08 10:26:52;;;;;;;6.97;3.40;;;;;;;23.54;38.38;101746.57;1676084;84;21090;-81
2021/06/08 10:29:27;;;;;;;12.20;3.50;;;;;;;23.53;38.29;101745.69;1640579;87;21091;-81
2021/06/08 10:31:54;;;;;;;5.37;3.45;;;;;;;23.46;38.46;101737.27;1675668;84;22822;-80
2021/06/08 10:34:21;;;;;;;9.98;3.80;;;;;;;23.53;38.64;101746.16;1640395;86;21024;-81
2021/06/08 10:36:48;;;;;;;4.92;3.22;;;;;;;23.49;38.65;101752.02;1675760;85;21157;-80
2021/06/08 10:39:17;;;;;;;7.87;3.80;;;;;;;23.42;38.66;101739.10;1640497;87;21299;-80
2021/06/08 10:41:45;;;;;;;8.68;3.60;;;;;;;23.41;38.76;101732.43;1675847;84;21110;-81
2021/06/08 10:44:23;;;;;;;6.42;3.87;;;;;;;23.39;38.60;101743.19;1640400;86;22580;-81
2021/06/08 10:47:03;;;;;;;7.75;3.72;;;;;;;23.38;38.63;101738.71;1648914;85;21074;-81
2021/06/08 10:49:41;;;;;;;6.50;2.72;;;;;;;23.38;38.75;101742.74;1640626;87;21114;-81
2021/06/08 10:52:11;;;;;;;8.68;2.75;;;;;;;23.41;38.60;101744.52;1675788;84;21090;-81
2021/06/08 10:54:44;;;;;;;5.40;3.55;;;;;;;23.34;38.66;101741.01;1675831;85;21117;-81
2021/06/08 10:57:17;;;;;;;9.55;3.60;;;;;;;23.31;38.88;101746.41;1675948;85;21763;-81
2021/06/08 10:59:46;;;;;;;8.48;3.75;;;;;;;23.27;38.86;101740.64;1673904;85;21089;-81
2021/06/08 11:02:34;;;;;;;6.40;3.42;;;;;;;23.24;39.04;101742.92;1640668;87;21086;-81
2021/06/08 11:05:01;;;;;;;9.00;4.97;;;;;;;23.32;39.34;101741.48;1653201;85;21098;-81
2021/06/08 11:07:51;;;;;;;7.08;3.85;;;;;;;23.36;39.35;101732.94;1640287;87;21155;-81
2021/06/08 11:10:33;;;;;;;10.60;3.42;;;;;;;23.39;39.54;101735.59;1675699;85;22573;-81
2021/06/08 11:13:17;;;;;;;7.85;3.77;;;;;;;23.36;39.44;101731.13;1640435;86;21142;-81
2021/06/08 11:15:47;;;;;;;13.18;4.35;;;;;;;23.35;39.61;101732.48;1675527;84;21115;-81
2021/06/08 11:18:37;;;;;;;8.58;3.70;;;;;;;23.33;39.84;101732.53;1675648;85;21582;-81
2021/06/08 11:21:12;;;;;;;5.30;3.77;;;;;;;23.34;40.40;101723.55;1640698;86;21130;-81
2021/06/08 11:23:45;;;;;;;5.33;4.25;;;;;;;23.40;40.36;101726.14;1675785;84;21884;-81
2021/06/08 11:26:17;;;;;;;8.03;4.47;;;;;;;23.38;40.59;101711.84;1640104;87;21147;-81
2021/06/08 11:28:49;;;;;;;5.40;3.85;;;;;;;23.45;40.71;101723.41;1675858;84;21106;-81
2021/06/08 11:31:18;;;;;;;6.05;4.53;;;;;;;23.42;40.70;101714.04;1640547;87;21176;-81
2021/06/08 11:33:49;;;;;;;7.20;4.03;;;;;;;23.44;41.09;101719.84;1675725;83;21052;-81
2021/06/08 11:36:25;;;;;;;5.87;3.50;;;;;;;23.46;41.03;101722.06;1675485;84;21771;-81
2021/06/08 11:38:54;;;;;;;10.93;4.35;;;;;;;23.46;41.08;101721.14;1675822;85;21118;-81
2021/06/08 11:41:21;;;;;;;7.42;4.20;;;;;;;23.44;41.08;101712.22;1675695;85;21326;-81
2021/06/08 11:43:54;;;;;;;17.00;4.75;;;;;;;23.41;41.31;101721.22;1640383;87;21152;-81